Albion, New York
Current Conditions -  °F | °C
As of 11:20 AM on Tuesday 21 Oct 2014 (Local Time) from KROC Reporting Station
Light Rain Light Rain  
Wind Chill: 52°   Ceiling: 500
Heat Index: 52°   Visibility: 2.5mi
Dew Point: 50°   Wind: 3mph
Humidity: 93%   Direction: 280°W
Pressure: 29.85"   Gusts: NA
Location:  43.25°N, 78.19°W
Report Text: KROC 211520Z 28003KT 2 1/2SM -RA BR BKN005 OVC011 11/10 A2985 RMK AO2 PCPN VRY LGT P0000 T01110100
Loading
Personal Weather Stations






























Interactive Weather Map New forecast layout! Learn more

10-Day Weather Forecast

Advertisements
Track Severe Weather on mobile